Ada, Kansas
Current Conditions -  °F | °C
As of 5:53 AM on Sunday 23 Nov 2014 (Local Time) from KSLN Reporting Station
Overcast Overcast  
Wind Chill: 53°   Ceiling: 1800
Heat Index: 53°   Visibility: 10mi
Dew Point: 49°   Wind: 3mph
Humidity: 86%   Direction: 150°SSE
Pressure: 29.48"   Gusts: NA
Location:  39.1542°N, 97.5941°W
Report Text: KSLN 231153Z AUTO 15003KT 10SM OVC018 12/09 A2948 RMK AO2 SLP979 T01170094 10133 20117 55003
Loading
Personal Weather Stations






























Interactive Weather Map New forecast layout! Learn more

10-Day Weather Forecast

Advertisements
Track Severe Weather on mobile